Terminal Aerodrome Forecast
Issued by NWS

Home | Current Version | Previous Version | Text Only | Print | Product List | Glossary On
Versions: 1 2 3 4 5 6 7 8 9 10 11 12 13 14 15 16 17 18 19 20 21 22 23 24 25 26 27 28 29 30 31
000
FTUS43 KLOT 020023 AAA
TAFGYY
TAF AMD
KGYY 020023Z 0200/0224 02008KT 5SM -SHRA BR OVC005
      TEMPO 0201/0203 3SM TSRA BR OVC004CB
     FM020500 03011KT 5SM BR OVC003
     FM021200 02009KT P6SM OVC007
     FM021700 02010KT P6SM OVC012=

USA.gov is the U.S. government's official web portal to all federal, state and local government web resources and services.